sensor_id;sensor_type;location;lat;lon;timestamp;pressure;altitude;pressure_sealevel;temperature;humidity
3096;BME280;1558;42.700;23.360;2022-09-03T08:41:48;95460.09;;;21.56;100.00
3096;BME280;1558;42.700;23.360;2022-09-03T08:44:25;95457.69;;;21.76;100.00
3096;BME280;1558;42.700;23.360;2022-09-03T08:46:58;95409.59;;;21.33;100.00
3096;BME280;1558;42.700;23.360;2022-09-03T08:49:32;95443.53;;;21.85;100.00
3096;BME280;1558;42.700;23.360;2022-09-03T08:52:07;95453.16;;;22.21;100.00
3096;BME280;1558;42.700;23.360;2022-09-03T08:54:41;95446.72;;;22.42;96.58
3096;BME280;1558;42.700;23.360;2022-09-03T08:57:11;95456.81;;;22.66;98.87
3096;BME280;1558;42.700;23.360;2022-09-03T08:59:40;95458.78;;;22.65;94.61
3096;BME280;1558;42.700;23.360;2022-09-03T09:02:18;95454.97;;;22.49;91.29
3096;BME280;1558;42.700;23.360;2022-09-03T09:04:58;95460.16;;;22.36;95.71
3096;BME280;1558;42.700;23.360;2022-09-03T09:07:40;95439.59;;;22.55;95.61
3096;BME280;1558;42.700;23.360;2022-09-03T09:10:15;95455.31;;;23.06;92.09
3096;BME280;1558;42.700;23.360;2022-09-03T09:13:04;95453.81;;;22.94;89.13
3096;BME280;1558;42.700;23.360;2022-09-03T09:15:42;95451.38;;;23.03;89.55
3096;BME280;1558;42.700;23.360;2022-09-03T09:18:21;95451.84;;;22.95;87.26
3096;BME280;1558;42.700;23.360;2022-09-03T09:20:53;95343.06;;;21.91;89.37
3096;BME280;1558;42.700;23.360;2022-09-03T09:23:27;95451.59;;;22.78;88.79
3096;BME280;1558;42.700;23.360;2022-09-03T09:25:58;95456.34;;;22.74;90.66
3096;BME280;1558;42.700;23.360;2022-09-03T09:28:32;95446.03;;;22.89;88.70
3096;BME280;1558;42.700;23.360;2022-09-03T09:31:03;95464.50;;;23.29;87.14
3096;BME280;1558;42.700;23.360;2022-09-03T09:33:33;95464.34;;;23.47;85.87
3096;BME280;1558;42.700;23.360;2022-09-03T09:36:04;95461.09;;;23.15;85.85
3096;BME280;1558;42.700;23.360;2022-09-03T09:38:35;95457.41;;;23.69;84.94
3096;BME280;1558;42.700;23.360;2022-09-03T09:41:08;95459.16;;;23.86;82.41
3096;BME280;1558;42.700;23.360;2022-09-03T09:43:38;95454.09;;;24.15;81.57
3096;BME280;1558;42.700;23.360;2022-09-03T09:46:11;95456.06;;;23.81;81.87
3096;BME280;1558;42.700;23.360;2022-09-03T09:48:47;95460.25;;;23.62;83.02
3096;BME280;1558;42.700;23.360;2022-09-03T09:51:20;95440.59;;;23.60;82.71
3096;BME280;1558;42.700;23.360;2022-09-03T09:53:59;95452.53;;;23.46;83.46
3096;BME280;1558;42.700;23.360;2022-09-03T09:56:28;95453.22;;;23.58;81.80
3096;BME280;1558;42.700;23.360;2022-09-03T09:59:06;95435.97;;;23.50;82.68
3096;BME280;1558;42.700;23.360;2022-09-03T10:01:37;95450.66;;;24.34;79.80
3096;BME280;1558;42.700;23.360;2022-09-03T10:04:10;95461.03;;;25.69;75.63
3096;BME280;1558;42.700;23.360;2022-09-03T10:06:38;95459.03;;;25.89;72.80
3096;BME280;1558;42.700;23.360;2022-09-03T10:09:24;95450.72;;;26.09;67.91
3096;BME280;1558;42.700;23.360;2022-09-03T10:12:09;95472.97;;;26.41;66.16
3096;BME280;1558;42.700;23.360;2022-09-03T10:14:45;95457.56;;;26.24;66.10
3096;BME280;1558;42.700;23.360;2022-09-03T10:17:18;95460.00;;;26.90;64.84
3096;BME280;1558;42.700;23.360;2022-09-03T10:20:06;95455.16;;;26.78;63.13
3096;BME280;1558;42.700;23.360;2022-09-03T10:22:59;95451.00;;;27.02;64.42
3096;BME280;1558;42.700;23.360;2022-09-03T10:25:35;95436.44;;;27.14;60.33
3096;BME280;1558;42.700;23.360;2022-09-03T10:28:07;95447.84;;;26.68;62.07
3096;BME280;1558;42.700;23.360;2022-09-03T10:30:56;95447.59;;;27.11;62.06
3096;BME280;1558;42.700;23.360;2022-09-03T10:33:33;95456.31;;;27.25;61.20
3096;BME280;1558;42.700;23.360;2022-09-03T10:36:11;95451.66;;;27.06;61.01
3096;BME280;1558;42.700;23.360;2022-09-03T10:38:45;95455.41;;;27.00;60.10
3096;BME280;1558;42.700;23.360;2022-09-03T10:41:26;95439.38;;;27.23;60.59
3096;BME280;1558;42.700;23.360;2022-09-03T10:44:10;95454.91;;;28.73;56.95
3096;BME280;1558;42.700;23.360;2022-09-03T10:46:55;95407.06;;;28.03;56.20
3096;BME280;1558;42.700;23.360;2022-09-03T10:49:34;95450.19;;;27.63;57.92
3096;BME280;1558;42.700;23.360;2022-09-03T10:52:12;95456.94;;;27.17;57.73
3096;BME280;1558;42.700;23.360;2022-09-03T10:54:51;95452.88;;;27.21;58.53
3096;BME280;1558;42.700;23.360;2022-09-03T10:57:30;95454.88;;;27.66;57.36
3096;BME280;1558;42.700;23.360;2022-09-03T11:00:05;95450.19;;;27.91;55.97
3096;BME280;1558;42.700;23.360;2022-09-03T11:05:55;95449.81;;;28.59;55.52
3096;BME280;1558;42.700;23.360;2022-09-03T11:08:27;95445.22;;;28.65;52.79
3096;BME280;1558;42.700;23.360;2022-09-03T11:11:04;95450.22;;;28.70;54.99
3096;BME280;1558;42.700;23.360;2022-09-03T11:13:38;95453.25;;;28.63;53.37
3096;BME280;1558;42.700;23.360;2022-09-03T11:16:14;95448.91;;;28.75;53.26
3096;BME280;1558;42.700;23.360;2022-09-03T11:18:49;95447.22;;;28.52;52.94
3096;BME280;1558;42.700;23.360;2022-09-03T11:21:21;95380.66;;;27.28;56.17
3096;BME280;1558;42.700;23.360;2022-09-03T11:23:56;95456.91;;;28.06;55.23
3096;BME280;1558;42.700;23.360;2022-09-03T11:26:30;95449.88;;;29.19;53.95
3096;BME280;1558;42.700;23.360;2022-09-03T11:29:03;95430.06;;;29.51;51.86
3096;BME280;1558;42.700;23.360;2022-09-03T11:31:42;95451.09;;;28.55;53.20
3096;BME280;1558;42.700;23.360;2022-09-03T11:34:29;95450.38;;;28.13;54.95
3096;BME280;1558;42.700;23.360;2022-09-03T11:37:20;95441.53;;;27.61;56.76
3096;BME280;1558;42.700;23.360;2022-09-03T11:39:57;95448.28;;;28.17;55.45
3096;BME280;1558;42.700;23.360;2022-09-03T11:42:29;95451.66;;;28.50;54.57
3096;BME280;1558;42.700;23.360;2022-09-03T11:45:12;95452.22;;;28.70;53.67
3096;BME280;1558;42.700;23.360;2022-09-03T11:47:42;95440.31;;;29.54;52.23
3096;BME280;1558;42.700;23.360;2022-09-03T11:50:19;95434.84;;;29.04;51.87
3096;BME280;1558;42.700;23.360;2022-09-03T11:52:47;95448.06;;;28.11;54.34
3096;BME280;1558;42.700;23.360;2022-09-03T11:55:27;95446.28;;;27.89;54.07
3096;BME280;1558;42.700;23.360;2022-09-03T11:58:11;95455.34;;;27.77;56.33
3096;BME280;1558;42.700;23.360;2022-09-03T12:00:44;95440.31;;;28.57;53.00
3096;BME280;1558;42.700;23.360;2022-09-03T12:03:13;95449.22;;;28.90;52.39
3096;BME280;1558;42.700;23.360;2022-09-03T12:05:51;95439.78;;;28.74;53.02
3096;BME280;1558;42.700;23.360;2022-09-03T12:08:57;95428.44;;;28.81;53.63
3096;BME280;1558;42.700;23.360;2022-09-03T12:11:37;95417.88;;;28.39;51.97
3096;BME280;1558;42.700;23.360;2022-09-03T12:14:12;95404.50;;;27.55;54.58
3096;BME280;1558;42.700;23.360;2022-09-03T12:16:54;95423.78;;;27.87;55.09
3096;BME280;1558;42.700;23.360;2022-09-03T12:19:34;95412.69;;;27.87;54.52
3096;BME280;1558;42.700;23.360;2022-09-03T12:22:05;95418.50;;;27.64;55.40
3096;BME280;1558;42.700;23.360;2022-09-03T12:24:33;95418.66;;;28.39;53.46
3096;BME280;1558;42.700;23.360;2022-09-03T12:27:04;95420.22;;;28.40;53.72
3096;BME280;1558;42.700;23.360;2022-09-03T12:29:33;95420.63;;;28.01;53.84
3096;BME280;1558;42.700;23.360;2022-09-03T12:32:06;95412.56;;;27.78;55.57
3096;BME280;1558;42.700;23.360;2022-09-03T12:34:35;95402.38;;;27.87;55.32
3096;BME280;1558;42.700;23.360;2022-09-03T12:37:19;95420.41;;;28.08;54.83
3096;BME280;1558;42.700;23.360;2022-09-03T12:40:16;95384.28;;;27.83;54.37
3096;BME280;1558;42.700;23.360;2022-09-03T12:42:47;95331.63;;;27.25;54.66
3096;BME280;1558;42.700;23.360;2022-09-03T12:45:18;95405.34;;;27.23;54.46
3096;BME280;1558;42.700;23.360;2022-09-03T12:47:47;95412.53;;;27.20;56.58
3096;BME280;1558;42.700;23.360;2022-09-03T12:50:17;95413.91;;;27.28;56.92
3096;BME280;1558;42.700;23.360;2022-09-03T12:52:49;95409.03;;;27.90;54.78
3096;BME280;1558;42.700;23.360;2022-09-03T12:55:27;95404.06;;;27.56;54.91
3096;BME280;1558;42.700;23.360;2022-09-03T12:58:02;95402.69;;;26.87;56.76
3096;BME280;1558;42.700;23.360;2022-09-03T13:00:39;95395.25;;;26.68;57.33
3096;BME280;1558;42.700;23.360;2022-09-03T13:03:11;95392.91;;;26.66;57.75
3096;BME280;1558;42.700;23.360;2022-09-03T13:05:45;95387.16;;;26.25;59.03
3096;BME280;1558;42.700;23.360;2022-09-03T13:08:18;95389.13;;;25.30;60.99
3096;BME280;1558;42.700;23.360;2022-09-03T13:10:51;95372.03;;;25.15;61.15
3096;BME280;1558;42.700;23.360;2022-09-03T13:13:22;95383.03;;;25.19;61.37
3096;BME280;1558;42.700;23.360;2022-09-03T13:16:10;95386.00;;;25.28;61.78
3096;BME280;1558;42.700;23.360;2022-09-03T13:18:45;95376.94;;;25.08;61.27
3096;BME280;1558;42.700;23.360;2022-09-03T13:21:21;95225.84;;;24.03;62.74
3096;BME280;1558;42.700;23.360;2022-09-03T13:24:18;95375.63;;;24.93;63.82
3096;BME280;1558;42.700;23.360;2022-09-03T13:27:00;95342.50;;;24.46;64.35
3096;BME280;1558;42.700;23.360;2022-09-03T13:29:38;95373.69;;;24.66;64.36
3096;BME280;1558;42.700;23.360;2022-09-03T13:32:21;95367.47;;;24.62;64.50
3096;BME280;1558;42.700;23.360;2022-09-03T13:34:53;95329.00;;;24.29;64.13
3096;BME280;1558;42.700;23.360;2022-09-03T13:37:27;95363.44;;;24.67;64.99
3096;BME280;1558;42.700;23.360;2022-09-03T13:40:11;95362.78;;;24.82;65.67
3096;BME280;1558;42.700;23.360;2022-09-03T13:42:44;95364.13;;;24.74;64.13
3096;BME280;1558;42.700;23.360;2022-09-03T13:45:27;95354.75;;;24.92;63.71
3096;BME280;1558;42.700;23.360;2022-09-03T13:47:59;95362.38;;;25.27;63.49
3096;BME280;1558;42.700;23.360;2022-09-03T13:50:49;95360.25;;;25.54;62.43
3096;BME280;1558;42.700;23.360;2022-09-03T13:53:35;95355.84;;;25.37;61.20
3096;BME280;1558;42.700;23.360;2022-09-03T13:56:15;95353.25;;;25.49;62.05
3096;BME280;1558;42.700;23.360;2022-09-03T13:58:49;95358.41;;;25.28;60.02
3096;BME280;1558;42.700;23.360;2022-09-03T14:01:23;95355.81;;;24.98;60.39
3096;BME280;1558;42.700;23.360;2022-09-03T14:03:54;95362.44;;;24.80;62.23
3096;BME280;1558;42.700;23.360;2022-09-03T14:06:36;95364.13;;;24.74;62.20
3096;BME280;1558;42.700;23.360;2022-09-03T14:09:12;95310.22;;;24.20;62.77
3096;BME280;1558;42.700;23.360;2022-09-03T14:11:52;95365.97;;;24.58;63.46
3096;BME280;1558;42.700;23.360;2022-09-03T14:14:33;95360.91;;;24.76;61.75
3096;BME280;1558;42.700;23.360;2022-09-03T14:17:09;95365.53;;;24.59;61.64
3096;BME280;1558;42.700;23.360;2022-09-03T14:19:44;95366.00;;;24.31;62.94
3096;BME280;1558;42.700;23.360;2022-09-03T14:22:16;95365.25;;;24.27;63.30
3096;BME280;1558;42.700;23.360;2022-09-03T14:24:49;95372.72;;;24.30;63.64
3096;BME280;1558;42.700;23.360;2022-09-03T14:27:25;95368.56;;;24.42;64.06
3096;BME280;1558;42.700;23.360;2022-09-03T14:29:59;95357.97;;;24.63;63.95
3096;BME280;1558;42.700;23.360;2022-09-03T14:32:36;95367.41;;;24.66;64.50
3096;BME280;1558;42.700;23.360;2022-09-03T14:38:30;95367.22;;;25.00;66.90
3096;BME280;1558;42.700;23.360;2022-09-03T14:41:04;95343.47;;;24.82;69.13
3096;BME280;1558;42.700;23.360;2022-09-03T14:44:07;95360.47;;;24.81;71.42
3096;BME280;1558;42.700;23.360;2022-09-03T14:46:51;95360.03;;;24.82;73.47
3096;BME280;1558;42.700;23.360;2022-09-03T14:52:52;95328.81;;;24.16;75.58
3096;BME280;1558;42.700;23.360;2022-09-03T14:55:47;95378.19;;;24.34;77.45
3096;BME280;1558;42.700;23.360;2022-09-03T14:58:33;95369.25;;;24.26;78.47
3096;BME280;1558;42.700;23.360;2022-09-03T15:01:10;95370.38;;;24.29;78.73
3096;BME280;1558;42.700;23.360;2022-09-03T15:03:54;95374.41;;;24.24;78.94
3096;BME280;1558;42.700;23.360;2022-09-03T15:06:36;95368.03;;;24.00;79.60
3096;BME280;1558;42.700;23.360;2022-09-03T15:09:16;95385.06;;;23.92;80.90
3096;BME280;1558;42.700;23.360;2022-09-03T15:11:54;95365.59;;;23.76;81.26
3096;BME280;1558;42.700;23.360;2022-09-03T15:14:29;95311.00;;;23.40;82.66
3096;BME280;1558;42.700;23.360;2022-09-03T15:17:20;95380.56;;;24.05;82.18
3096;BME280;1558;42.700;23.360;2022-09-03T15:20:02;95380.84;;;24.14;82.08
3096;BME280;1558;42.700;23.360;2022-09-03T15:22:48;95380.81;;;24.17;81.41
3096;BME280;1558;42.700;23.360;2022-09-03T15:25:32;95388.47;;;24.03;81.17
3096;BME280;1558;42.700;23.360;2022-09-03T15:28:11;95386.66;;;23.89;81.46
3096;BME280;1558;42.700;23.360;2022-09-03T15:30:52;95354.06;;;23.58;82.30
3096;BME280;1558;42.700;23.360;2022-09-03T15:33:29;95294.03;;;23.12;82.19
3096;BME280;1558;42.700;23.360;2022-09-03T15:36:17;95390.66;;;23.58;82.98
3096;BME280;1558;42.700;23.360;2022-09-03T15:38:50;95394.03;;;23.39;84.30
3096;BME280;1558;42.700;23.360;2022-09-03T15:41:28;95361.72;;;23.06;84.75
3096;BME280;1558;42.700;23.360;2022-09-03T15:43:59;95397.09;;;23.07;84.59
3096;BME280;1558;42.700;23.360;2022-09-03T15:46:44;95391.50;;;22.77;86.57
3096;BME280;1558;42.700;23.360;2022-09-03T15:49:26;95406.78;;;22.78;87.62
3096;BME280;1558;42.700;23.360;2022-09-03T15:52:05;95416.41;;;22.52;88.35
3096;BME280;1558;42.700;23.360;2022-09-03T15:54:41;95402.41;;;22.36;89.18
3096;BME280;1558;42.700;23.360;2022-09-03T15:57:15;95414.16;;;22.44;90.10
3096;BME280;1558;42.700;23.360;2022-09-03T15:59:50;95421.22;;;22.41;89.84
3096;BME280;1558;42.700;23.360;2022-09-03T16:02:23;95423.31;;;22.23;91.02
3096;BME280;1558;42.700;23.360;2022-09-03T16:05:04;95414.03;;;22.03;91.76
3096;BME280;1558;42.700;23.360;2022-09-03T16:07:47;95430.59;;;21.85;93.03
3096;BME280;1558;42.700;23.360;2022-09-03T16:10:21;95385.69;;;21.37;94.62
3096;BME280;1558;42.700;23.360;2022-09-03T16:13:03;95357.94;;;21.14;95.87
3096;BME280;1558;42.700;23.360;2022-09-03T16:15:38;95415.41;;;21.56;95.94
3096;BME280;1558;42.700;23.360;2022-09-03T16:18:13;95419.31;;;21.58;95.66
3096;BME280;1558;42.700;23.360;2022-09-03T16:20:53;95435.03;;;21.58;95.44
3096;BME280;1558;42.700;23.360;2022-09-03T16:23:29;95429.97;;;21.46;95.21
3096;BME280;1558;42.700;23.360;2022-09-03T16:26:03;95419.03;;;21.32;95.85
3096;BME280;1558;42.700;23.360;2022-09-03T16:28:36;95424.13;;;21.37;96.41
3096;BME280;1558;42.700;23.360;2022-09-03T16:31:17;95420.22;;;21.24;96.64
3096;BME280;1558;42.700;23.360;2022-09-03T16:33:54;95448.84;;;21.30;97.09
3096;BME280;1558;42.700;23.360;2022-09-03T16:36:34;95413.97;;;21.02;97.91
3096;BME280;1558;42.700;23.360;2022-09-03T16:39:15;95448.47;;;21.07;99.23
3096;BME280;1558;42.700;23.360;2022-09-03T16:41:54;95434.38;;;20.90;99.77
3096;BME280;1558;42.700;23.360;2022-09-03T16:44:32;95411.69;;;20.65;99.66
3096;BME280;1558;42.700;23.360;2022-09-03T16:47:10;95448.88;;;20.98;100.00
3096;BME280;1558;42.700;23.360;2022-09-03T16:49:51;95429.69;;;20.84;100.00
3096;BME280;1558;42.700;23.360;2022-09-03T16:52:30;95462.56;;;21.02;100.00
3096;BME280;1558;42.700;23.360;2022-09-03T16:55:15;95465.72;;;20.89;100.00
3096;BME280;1558;42.700;23.360;2022-09-03T16:58:05;95443.00;;;20.71;100.00
3096;BME280;1558;42.700;23.360;2022-09-03T17:00:46;95434.38;;;20.59;100.00
3096;BME280;1558;42.700;23.360;2022-09-03T17:06:59;95463.41;;;20.63;100.00
3096;BME280;1558;42.700;23.360;2022-09-03T17:09:43;95468.88;;;20.70;100.00
3096;BME280;1558;42.700;23.360;2022-09-03T17:12:24;95471.19;;;20.75;100.00
3096;BME280;1558;42.700;23.360;2022-09-03T17:15:31;95482.59;;;20.77;100.00
3096;BME280;1558;42.700;23.360;2022-09-03T17:18:20;95492.34;;;20.64;100.00
3096;BME280;1558;42.700;23.360;2022-09-03T17:21:00;95489.19;;;20.45;100.00
3096;BME280;1558;42.700;23.360;2022-09-03T17:26:38;95491.94;;;20.38;100.00
3096;BME280;1558;42.700;23.360;2022-09-03T17:29:25;95494.25;;;20.29;100.00
3096;BME280;1558;42.700;23.360;2022-09-03T17:32:05;95503.97;;;20.05;100.00
3096;BME280;1558;42.700;23.360;2022-09-03T17:34:47;95522.75;;;20.03;100.00
3096;BME280;1558;42.700;23.360;2022-09-03T17:37:27;95495.25;;;19.75;100.00
3096;BME280;1558;42.700;23.360;2022-09-03T17:40:18;95538.34;;;19.95;100.00
3096;BME280;1558;42.700;23.360;2022-09-03T17:42:58;95521.50;;;19.86;100.00
3096;BME280;1558;42.700;23.360;2022-09-03T17:45:36;95522.66;;;19.85;100.00
3096;BME280;1558;42.700;23.360;2022-09-03T17:48:25;95533.63;;;19.82;100.00
3096;BME280;1558;42.700;23.360;2022-09-03T17:51:02;95547.28;;;19.75;100.00
3096;BME280;1558;42.700;23.360;2022-09-03T17:53:37;95582.84;;;19.75;100.00
3096;BME280;1558;42.700;23.360;2022-09-03T17:56:10;95532.72;;;19.64;100.00
3096;BME280;1558;42.700;23.360;2022-09-03T17:58:50;95542.91;;;19.67;100.00
3096;BME280;1558;42.700;23.360;2022-09-03T18:01:23;95542.84;;;19.52;100.00
3096;BME280;1558;42.700;23.360;2022-09-03T18:03:56;95541.25;;;19.44;100.00
3096;BME280;1558;42.700;23.360;2022-09-03T18:06:35;95508.56;;;19.15;100.00
3096;BME280;1558;42.700;23.360;2022-09-03T18:09:21;95545.00;;;19.29;100.00
3096;BME280;1558;42.700;23.360;2022-09-03T18:12:02;95543.41;;;19.25;100.00
3096;BME280;1558;42.700;23.360;2022-09-03T18:14:34;95574.75;;;19.34;100.00
3096;BME280;1558;42.700;23.360;2022-09-03T18:17:08;95572.47;;;19.40;100.00
3096;BME280;1558;42.700;23.360;2022-09-03T18:19:47;95570.84;;;19.35;100.00
3096;BME280;1558;42.700;23.360;2022-09-03T18:22:37;95577.53;;;19.38;100.00
3096;BME280;1558;42.700;23.360;2022-09-03T18:25:27;95581.38;;;19.33;100.00
3096;BME280;1558;42.700;23.360;2022-09-03T18:28:15;95559.78;;;19.21;100.00
3096;BME280;1558;42.700;23.360;2022-09-03T18:31:09;95564.88;;;19.19;100.00
3096;BME280;1558;42.700;23.360;2022-09-03T18:33:57;95562.94;;;19.23;100.00
3096;BME280;1558;42.700;23.360;2022-09-03T18:36:43;95576.25;;;19.25;100.00
3096;BME280;1558;42.700;23.360;2022-09-03T18:39:28;95567.16;;;19.10;100.00
3096;BME280;1558;42.700;23.360;2022-09-03T18:42:19;95574.16;;;19.11;100.00
3096;BME280;1558;42.700;23.360;2022-09-03T18:45:13;95584.72;;;19.09;100.00
3096;BME280;1558;42.700;23.360;2022-09-03T18:48:29;95574.09;;;19.01;100.00
3096;BME280;1558;42.700;23.360;2022-09-03T18:51:25;95569.88;;;19.10;100.00
3096;BME280;1558;42.700;23.360;2022-09-03T18:54:24;95560.88;;;19.10;100.00
3096;BME280;1558;42.700;23.360;2022-09-03T18:57:40;95551.81;;;18.99;100.00
3096;BME280;1558;42.700;23.360;2022-09-03T19:00:29;95549.03;;;18.95;100.00
3096;BME280;1558;42.700;23.360;2022-09-03T19:03:37;95574.25;;;19.18;100.00
3096;BME280;1558;42.700;23.360;2022-09-03T19:06:31;95571.41;;;19.08;100.00
3096;BME280;1558;42.700;23.360;2022-09-03T19:09:30;95591.06;;;19.20;100.00
3096;BME280;1558;42.700;23.360;2022-09-03T19:12:29;95559.81;;;18.74;100.00
3096;BME280;1558;42.700;23.360;2022-09-03T19:15:27;95577.09;;;18.85;100.00
3096;BME280;1558;42.700;23.360;2022-09-03T19:18:28;95543.84;;;18.79;100.00
3096;BME280;1558;42.700;23.360;2022-09-03T19:21:21;95592.50;;;19.04;100.00
3096;BME280;1558;42.700;23.360;2022-09-03T19:24:07;95575.53;;;18.84;100.00
3096;BME280;1558;42.700;23.360;2022-09-03T19:27:03;95595.41;;;18.81;100.00
3096;BME280;1558;42.700;23.360;2022-09-03T19:30:14;95615.38;;;18.85;100.00
3096;BME280;1558;42.700;23.360;2022-09-03T19:33:10;95625.59;;;18.91;100.00
3096;BME280;1558;42.700;23.360;2022-09-03T19:36:05;95618.97;;;18.96;100.00
3096;BME280;1558;42.700;23.360;2022-09-03T19:39:02;95614.66;;;18.95;100.00
3096;BME280;1558;42.700;23.360;2022-09-03T19:41:56;95605.25;;;18.89;100.00
3096;BME280;1558;42.700;23.360;2022-09-03T19:44:56;95618.31;;;19.10;100.00
3096;BME280;1558;42.700;23.360;2022-09-03T19:47:51;95626.84;;;19.05;100.00
3096;BME280;1558;42.700;23.360;2022-09-03T19:50:46;95611.94;;;18.95;100.00
3096;BME280;1558;42.700;23.360;2022-09-03T19:53:39;95636.19;;;19.00;100.00
3096;BME280;1558;42.700;23.360;2022-09-03T19:56:27;95627.38;;;18.77;100.00
3096;BME280;1558;42.700;23.360;2022-09-03T19:59:18;95630.38;;;18.65;100.00
3096;BME280;1558;42.700;23.360;2022-09-03T20:02:04;95628.31;;;18.55;100.00
3096;BME280;1558;42.700;23.360;2022-09-03T20:04:55;95630.06;;;18.40;100.00
3096;BME280;1558;42.700;23.360;2022-09-03T20:07:42;95588.69;;;18.05;100.00
3096;BME280;1558;42.700;23.360;2022-09-03T20:10:29;95634.00;;;18.43;100.00
3096;BME280;1558;42.700;23.360;2022-09-03T20:13:02;95643.97;;;18.58;100.00
3096;BME280;1558;42.700;23.360;2022-09-03T20:15:44;95561.13;;;18.13;100.00
3096;BME280;1558;42.700;23.360;2022-09-03T20:18:23;95617.88;;;18.64;100.00
3096;BME280;1558;42.700;23.360;2022-09-03T20:21:08;95635.09;;;18.68;100.00
3096;BME280;1558;42.700;23.360;2022-09-03T20:23:42;95620.75;;;18.45;100.00
3096;BME280;1558;42.700;23.360;2022-09-03T20:26:26;95640.53;;;18.64;100.00
3096;BME280;1558;42.700;23.360;2022-09-03T20:29:08;95626.00;;;18.57;100.00
3096;BME280;1558;42.700;23.360;2022-09-03T20:31:46;95618.56;;;18.54;100.00
3096;BME280;1558;42.700;23.360;2022-09-03T20:34:27;95639.63;;;18.53;100.00
3096;BME280;1558;42.700;23.360;2022-09-03T20:37:10;95618.31;;;18.36;100.00
3096;BME280;1558;42.700;23.360;2022-09-03T20:39:52;95653.50;;;18.41;100.00
3096;BME280;1558;42.700;23.360;2022-09-03T20:42:39;95649.50;;;18.32;100.00
3096;BME280;1558;42.700;23.360;2022-09-03T20:45:16;95586.44;;;17.81;100.00
3096;BME280;1558;42.700;23.360;2022-09-03T20:47:54;95649.22;;;18.10;100.00
3096;BME280;1558;42.700;23.360;2022-09-03T20:53:25;95657.41;;;18.10;100.00
3096;BME280;1558;42.700;23.360;2022-09-03T20:56:05;95648.75;;;18.05;100.00
3096;BME280;1558;42.700;23.360;2022-09-03T20:58:41;95660.78;;;18.30;100.00
3096;BME280;1558;42.700;23.360;2022-09-03T21:01:16;95653.59;;;18.18;100.00
3096;BME280;1558;42.700;23.360;2022-09-03T21:03:56;95661.06;;;18.21;100.00
3096;BME280;1558;42.700;23.360;2022-09-03T21:06:34;95662.66;;;18.22;100.00
3096;BME280;1558;42.700;23.360;2022-09-03T21:09:13;95657.50;;;18.17;100.00
3096;BME280;1558;42.700;23.360;2022-09-03T21:11:47;95637.81;;;18.01;100.00
3096;BME280;1558;42.700;23.360;2022-09-03T21:14:31;95637.22;;;17.89;100.00
3096;BME280;1558;42.700;23.360;2022-09-03T21:17:14;95626.16;;;17.78;100.00
3096;BME280;1558;42.700;23.360;2022-09-03T21:19:56;95639.59;;;17.90;100.00
3096;BME280;1558;42.700;23.360;2022-09-03T21:22:32;95622.97;;;17.73;100.00
3096;BME280;1558;42.700;23.360;2022-09-03T21:25:06;95644.31;;;17.93;100.00
3096;BME280;1558;42.700;23.360;2022-09-03T21:27:38;95641.63;;;17.97;100.00
3096;BME280;1558;42.700;23.360;2022-09-03T21:30:13;95644.72;;;17.95;100.00
3096;BME280;1558;42.700;23.360;2022-09-03T21:32:44;95652.19;;;17.98;100.00
3096;BME280;1558;42.700;23.360;2022-09-03T21:35:20;95631.63;;;17.78;100.00
3096;BME280;1558;42.700;23.360;2022-09-03T21:37:53;95647.34;;;17.88;100.00
3096;BME280;1558;42.700;23.360;2022-09-03T21:40:27;95629.56;;;17.72;100.00
3096;BME280;1558;42.700;23.360;2022-09-03T21:43:04;95642.22;;;17.83;100.00
3096;BME280;1558;42.700;23.360;2022-09-03T21:45:42;95645.81;;;17.87;100.00
3096;BME280;1558;42.700;23.360;2022-09-03T21:48:16;95644.75;;;17.69;100.00
3096;BME280;1558;42.700;23.360;2022-09-03T21:50:51;95645.56;;;17.47;100.00
3096;BME280;1558;42.700;23.360;2022-09-03T21:53:27;95641.34;;;17.27;100.00
3096;BME280;1558;42.700;23.360;2022-09-03T21:56:10;95607.50;;;16.82;100.00
3096;BME280;1558;42.700;23.360;2022-09-03T21:58:52;95660.63;;;17.15;100.00
3096;BME280;1558;42.700;23.360;2022-09-03T22:01:38;95651.03;;;17.47;100.00
3096;BME280;1558;42.700;23.360;2022-09-03T22:04:10;95649.50;;;17.49;100.00
3096;BME280;1558;42.700;23.360;2022-09-03T22:06:44;95635.69;;;17.39;100.00
3096;BME280;1558;42.700;23.360;2022-09-03T22:09:20;95648.63;;;17.19;100.00
3096;BME280;1558;42.700;23.360;2022-09-03T22:11:55;95646.25;;;17.18;100.00
3096;BME280;1558;42.700;23.360;2022-09-03T22:14:27;95645.66;;;17.28;100.00
3096;BME280;1558;42.700;23.360;2022-09-03T22:17:04;95648.31;;;17.24;100.00
3096;BME280;1558;42.700;23.360;2022-09-03T22:19:36;95663.56;;;17.29;100.00
3096;BME280;1558;42.700;23.360;2022-09-03T22:22:11;95659.81;;;17.37;100.00
3096;BME280;1558;42.700;23.360;2022-09-03T22:24:46;95661.72;;;17.59;100.00
3096;BME280;1558;42.700;23.360;2022-09-03T22:27:21;95662.19;;;17.61;100.00
3096;BME280;1558;42.700;23.360;2022-09-03T22:30:00;95662.50;;;17.56;100.00
3096;BME280;1558;42.700;23.360;2022-09-03T22:32:37;95664.94;;;17.65;100.00
3096;BME280;1558;42.700;23.360;2022-09-03T22:38:13;95644.25;;;17.37;100.00
3096;BME280;1558;42.700;23.360;2022-09-03T22:40:46;95618.31;;;17.24;100.00
3096;BME280;1558;42.700;23.360;2022-09-03T22:43:36;95666.19;;;17.44;100.00
3096;BME280;1558;42.700;23.360;2022-09-03T22:46:09;95672.72;;;17.40;100.00
3096;BME280;1558;42.700;23.360;2022-09-03T22:48:49;95656.38;;;17.17;100.00
3096;BME280;1558;42.700;23.360;2022-09-03T22:51:22;95676.50;;;17.32;100.00
3096;BME280;1558;42.700;23.360;2022-09-03T22:54:04;95665.34;;;17.18;100.00
3096;BME280;1558;42.700;23.360;2022-09-03T22:56:38;95666.72;;;16.85;100.00
3096;BME280;1558;42.700;23.360;2022-09-03T22:59:11;95663.69;;;16.90;100.00
3096;BME280;1558;42.700;23.360;2022-09-03T23:01:43;95665.28;;;16.91;100.00
3096;BME280;1558;42.700;23.360;2022-09-03T23:04:21;95659.34;;;17.09;100.00
3096;BME280;1558;42.700;23.360;2022-09-03T23:06:56;95631.25;;;16.82;100.00
3096;BME280;1558;42.700;23.360;2022-09-03T23:09:29;95645.59;;;16.79;100.00
3096;BME280;1558;42.700;23.360;2022-09-03T23:12:01;95655.81;;;16.85;100.00
3096;BME280;1558;42.700;23.360;2022-09-03T23:14:35;95663.56;;;16.83;100.00